Reedley, California
Current Conditions -  °F | °C
As of 10:55 PM on Saturday 25 Oct 2014 (Local Time) from KVIS Reporting Station
Clear Clear  
Wind Chill: 61°   Ceiling: Unl
Heat Index: 61°   Visibility: 10mi
Dew Point: 48°   Wind: 10mph
Humidity: 63%   Direction: 300°WNW
Pressure: 30.09"   Gusts: NA
Location:  36.59°N, 119.45°W
Report Text: KVIS 260555Z 30009KT 10SM CLR 16/09 A3009 RMK AO1 10270 20160 52010
Loading
Personal Weather Stations






























Interactive Weather Map
Tropical Storm Tracking
New forecast layout! Learn more

10-Day Weather Forecast

Advertisements
Track Severe Weather on mobile